New Clarkson, Texas
Current Conditions -  °F | °C
As of 8:55 AM on Monday 24 Nov 2014 (Local Time) from KT35 Reporting Station
Clear Clear  
Wind Chill: 50°   Ceiling: Unl
Heat Index: 50°   Visibility: 10mi
Dew Point: 39°   Wind: 8mph
Humidity: 66%   Direction: 330°NNW
Pressure: 30.08"   Gusts: NA
Location:  31.0981°N, 96.99°W
Report Text: KT35 241455Z AUTO 33007KT 10SM CLR 10/04 A3008 RMK AO2 T01000039
Loading
Personal Weather Stations






























Interactive Weather Map New forecast layout! Learn more

10-Day Weather Forecast

Advertisements
Track Severe Weather on mobile